createdAt,value
2023-04-03T00:00:08.061Z,2.99
2023-04-03T00:05:11.079Z,3.02
2023-04-03T00:10:16.232Z,2.97
2023-04-03T00:15:19.114Z,2.94
2023-04-03T00:20:21.953Z,2.92
2023-04-03T00:25:26.044Z,2.82
2023-04-03T00:30:28.810Z,2.84
2023-04-03T00:35:31.844Z,2.65
2023-04-03T00:40:38.656Z,2.64
2023-04-03T00:45:42.999Z,2.71
2023-04-03T00:50:46.980Z,2.65
2023-04-03T00:55:52.847Z,2.51
2023-04-03T01:00:58.678Z,2.48
2023-04-03T01:06:01.786Z,2.32
2023-04-03T01:11:06.155Z,2.37
2023-04-03T01:16:10.149Z,2.35
2023-04-03T01:21:32.490Z,2.22
2023-04-03T01:26:36.799Z,2.18
2023-04-03T01:31:52.434Z,2.10
2023-04-03T01:36:55.440Z,2.04
2023-04-03T01:42:00.179Z,1.93
2023-04-03T01:47:09.393Z,1.92
2023-04-03T01:52:13.514Z,1.69
2023-04-03T01:57:16.316Z,1.65
2023-04-03T02:02:21.519Z,1.63
2023-04-03T02:07:24.305Z,1.65
2023-04-03T02:12:27.042Z,1.50
2023-04-03T02:17:31.239Z,1.46
2023-04-03T02:22:34.025Z,1.44
2023-04-03T02:27:37.119Z,1.41
2023-04-03T02:32:41.822Z,1.49
2023-04-03T02:37:44.831Z,1.28
2023-04-03T02:42:47.727Z,1.42
2023-04-03T02:47:52.193Z,1.29
2023-04-03T02:52:55.124Z,1.19
2023-04-03T02:57:58.072Z,1.21
2023-04-03T03:03:02.454Z,1.28
2023-04-03T03:08:05.544Z,1.20
2023-04-03T03:13:08.382Z,1.15
2023-04-03T03:18:12.521Z,1.22
2023-04-03T03:23:15.280Z,1.22
2023-04-03T03:28:18.063Z,1.16
2023-04-03T03:33:22.331Z,1.19
2023-04-03T03:38:25.507Z,1.21
2023-04-03T03:43:29.662Z,1.22
2023-04-03T03:48:34.352Z,0.99
2023-04-03T03:53:37.922Z,0.93
2023-04-03T03:58:43.702Z,0.70
2023-04-03T04:03:48.090Z,0.87
2023-04-03T04:08:55.672Z,0.75
2023-04-03T04:13:58.500Z,0.67
2023-04-03T04:19:07.596Z,0.82
2023-04-03T04:24:12.634Z,0.70
2023-04-03T04:29:16.394Z,0.72
2023-04-03T04:34:23.038Z,0.55
2023-04-03T04:39:26.466Z,0.50
2023-04-03T04:44:32.272Z,0.49
2023-04-03T04:49:36.893Z,0.39
2023-04-03T04:54:39.728Z,0.38
2023-04-03T04:59:43.336Z,0.39
2023-04-03T05:04:47.649Z,0.35
2023-04-03T05:09:56.829Z,0.38
2023-04-03T05:15:00.277Z,0.27
2023-04-03T05:20:08.544Z,0.39
2023-04-03T05:25:12.025Z,0.28
2023-04-03T05:30:18.842Z,0.49
2023-04-03T05:35:24.929Z,0.35
2023-04-03T05:40:31.500Z,0.29
2023-04-03T05:45:34.678Z,0.46
2023-04-03T05:50:42.372Z,0.56
2023-04-03T05:55:48.406Z,0.52
2023-04-03T06:00:51.643Z,0.48
2023-04-03T06:05:56.348Z,0.50
2023-04-03T06:11:00.989Z,0.71
2023-04-03T06:16:05.311Z,0.77
2023-04-03T06:21:09.681Z,0.78
2023-04-03T06:26:12.750Z,0.99
2023-04-03T06:31:15.538Z,0.87
2023-04-03T06:36:21.629Z,1.11
2023-04-03T06:41:24.420Z,1.58
2023-04-03T06:46:28.751Z,1.92
2023-04-03T06:51:32.915Z,1.94
2023-04-03T06:56:36.248Z,1.47
2023-04-03T07:01:39.097Z,1.40
2023-04-03T07:06:43.513Z,1.55
2023-04-03T07:11:46.738Z,1.45
2023-04-03T07:16:49.576Z,1.65
2023-04-03T07:21:53.768Z,1.74
2023-04-03T07:26:56.644Z,1.82
2023-04-03T07:31:59.432Z,2.02
2023-04-03T07:37:05.649Z,2.10
2023-04-03T07:42:08.341Z,2.24
2023-04-03T07:47:11.131Z,2.39
2023-04-03T07:52:15.755Z,2.46
2023-04-03T07:57:18.711Z,2.48
2023-04-03T08:02:21.468Z,2.55
2023-04-03T08:07:25.569Z,2.92
2023-04-03T08:12:29.473Z,2.93
2023-04-03T08:17:32.244Z,3.03
2023-04-03T08:22:36.489Z,3.33
2023-04-03T08:27:39.236Z,3.20
2023-04-03T08:32:42.954Z,3.50
2023-04-03T08:37:47.285Z,3.50
2023-04-03T08:43:05.172Z,3.64
2023-04-03T08:48:09.405Z,3.94
2023-04-03T08:53:16.405Z,3.96
2023-04-03T08:58:22.542Z,4.17
2023-04-03T09:03:25.870Z,4.23
2023-04-03T09:08:32.423Z,4.40
2023-04-03T09:13:39.514Z,4.53
2023-04-03T09:18:46.822Z,4.77
2023-04-03T09:23:52.987Z,4.79
2023-04-03T09:28:56.953Z,5.02
2023-04-03T09:34:03.934Z,5.14
2023-04-03T09:39:12.617Z,5.26
2023-04-03T09:44:24.657Z,5.27
2023-04-03T09:49:27.934Z,5.42
2023-04-03T09:54:41.865Z,5.55
2023-04-03T09:59:48.501Z,5.59
2023-04-03T10:05:06.402Z,5.68
2023-04-03T10:10:23.623Z,5.85
2023-04-03T10:15:38.860Z,5.68
2023-04-03T10:20:45.940Z,5.92
2023-04-03T10:25:59.621Z,6.14
2023-04-03T10:31:07.690Z,6.37
2023-04-03T10:36:18.385Z,6.45
2023-04-03T10:41:27.805Z,6.33
2023-04-03T10:46:35.598Z,6.29
2023-04-03T10:51:43.899Z,7.04
2023-04-03T10:56:57.904Z,7.00
2023-04-03T11:02:10.656Z,7.07
2023-04-03T11:07:17.775Z,7.04
2023-04-03T11:12:26.324Z,6.77
2023-04-03T11:17:33.493Z,6.61
2023-04-03T11:22:39.013Z,6.26
2023-04-03T11:27:46.997Z,7.40
2023-04-03T11:33:07.654Z,7.71
2023-04-03T11:38:17.892Z,8.33
2023-04-03T11:43:27.722Z,7.89
2023-04-03T11:48:52.237Z,7.05
2023-04-03T11:53:55.021Z,6.95
2023-04-03T11:59:32.508Z,7.25
2023-04-03T12:04:35.226Z,8.15
2023-04-03T12:10:30.921Z,8.15
2023-04-03T12:15:54.844Z,8.65
2023-04-03T12:20:59.158Z,8.69
2023-04-03T12:26:22.650Z,8.67
2023-04-03T12:31:41.116Z,8.76
2023-04-03T12:36:55.394Z,9.17
2023-04-03T12:42:05.626Z,9.05
2023-04-03T12:47:30.246Z,9.88
2023-04-03T12:52:37.691Z,8.39
2023-04-03T12:57:40.439Z,9.04
2023-04-03T13:02:47.191Z,8.79
2023-04-03T13:07:52.187Z,9.36
2023-04-03T13:12:57.850Z,9.40
2023-04-03T13:18:02.686Z,8.33
2023-04-03T13:23:09.220Z,8.79
2023-04-03T13:28:14.661Z,9.17
2023-04-03T13:33:24.528Z,9.45
2023-04-03T13:38:32.223Z,9.21
2023-04-03T13:43:36.981Z,9.38
2023-04-03T13:48:44.466Z,9.49
2023-04-03T13:53:50.385Z,9.43
2023-04-03T13:58:58.710Z,9.23
2023-04-03T14:04:12.890Z,8.50
2023-04-03T14:09:16.497Z,8.10
2023-04-03T14:14:22.039Z,8.51
2023-04-03T14:19:29.238Z,7.91
2023-04-03T14:24:33.078Z,7.96
2023-04-03T14:29:35.805Z,8.41
2023-04-03T14:34:40.407Z,8.55
2023-04-03T14:39:43.589Z,8.10
2023-04-03T14:44:46.850Z,8.08
2023-04-03T14:49:50.998Z,8.50
2023-04-03T14:54:54.815Z,8.28
2023-04-03T14:59:57.740Z,8.33
2023-04-03T15:05:05.002Z,8.26
2023-04-03T15:10:18.714Z,8.20
2023-04-03T15:15:23.138Z,8.43
2023-04-03T15:20:31.335Z,8.28
2023-04-03T15:25:34.579Z,8.52
2023-04-03T15:30:38.954Z,8.92
2023-04-03T15:35:43.281Z,8.99
2023-04-03T15:40:47.987Z,8.15
2023-04-03T15:45:51.559Z,8.36
2023-04-03T15:50:57.697Z,8.51
2023-04-03T15:56:01.357Z,8.24
2023-04-03T16:01:04.333Z,8.67
2023-04-03T16:06:08.535Z,8.72
2023-04-03T16:11:11.414Z,7.75
2023-04-03T16:16:14.348Z,7.51
2023-04-03T16:21:19.195Z,7.53
2023-04-03T16:26:21.968Z,8.30
2023-04-03T16:31:25.219Z,8.14
2023-04-03T16:36:29.528Z,7.83
2023-04-03T16:41:33.051Z,7.74
2023-04-03T16:46:35.996Z,7.82
2023-04-03T16:51:40.456Z,7.71
2023-04-03T16:56:43.247Z,7.42
2023-04-03T17:01:46.496Z,7.31
2023-04-03T17:06:54.452Z,7.17
2023-04-03T17:11:57.192Z,7.10
2023-04-03T17:17:00.135Z,6.90
2023-04-03T17:22:04.608Z,6.90
2023-04-03T17:27:07.429Z,6.84
2023-04-03T17:32:10.324Z,6.71
2023-04-03T17:37:14.660Z,6.33
2023-04-03T17:42:17.496Z,6.20
2023-04-03T17:47:20.233Z,6.28
2023-04-03T17:52:28.198Z,5.96
2023-04-03T17:57:31.542Z,6.04
2023-04-03T18:02:34.454Z,5.92
2023-04-03T18:07:39.017Z,5.80
2023-04-03T18:12:42.458Z,5.75
2023-04-03T18:17:46.284Z,5.70
2023-04-03T18:22:50.814Z,5.63
2023-04-03T18:27:53.896Z,5.47
2023-04-03T18:32:56.749Z,5.25
2023-04-03T18:38:00.957Z,5.17
2023-04-03T18:43:03.780Z,5.19
2023-04-03T18:48:07.099Z,5.14
2023-04-03T18:53:11.255Z,5.08
2023-04-03T18:58:14.032Z,4.96
2023-04-03T19:03:17.070Z,4.89
2023-04-03T19:08:21.336Z,4.76
2023-04-03T19:13:24.096Z,4.63
2023-04-03T19:18:27.040Z,4.62
2023-04-03T19:23:32.228Z,4.61
2023-04-03T19:28:35.251Z,4.40
2023-04-03T19:33:38.019Z,4.35
2023-04-03T19:38:42.751Z,4.41
2023-04-03T19:43:45.684Z,4.20
2023-04-03T19:48:48.461Z,4.17
2023-04-03T19:53:52.828Z,4.10
2023-04-03T19:58:55.646Z,4.04
2023-04-03T20:03:58.477Z,3.95
2023-04-03T20:09:02.763Z,4.01
2023-04-03T20:14:05.883Z,3.87
2023-04-03T20:19:09.480Z,3.71
2023-04-03T20:24:15.611Z,3.62
2023-04-03T20:29:19.241Z,3.59
2023-04-03T20:34:21.972Z,3.54
2023-04-03T20:39:26.551Z,3.55
2023-04-03T20:44:29.330Z,3.55
2023-04-03T20:49:32.261Z,3.38
2023-04-03T20:54:36.321Z,3.29
2023-04-03T20:59:40.148Z,3.31
2023-04-03T21:04:46.439Z,3.26
2023-04-03T21:10:28.244Z,3.08
2023-04-03T21:15:51.196Z,3.22
2023-04-03T21:20:55.763Z,3.11
2023-04-03T21:25:58.717Z,2.87
2023-04-03T21:31:01.453Z,3.07
2023-04-03T21:36:05.645Z,2.93
2023-04-03T21:41:08.393Z,2.90
2023-04-03T21:46:11.186Z,2.88
2023-04-03T21:51:16.149Z,2.83
2023-04-03T21:56:18.944Z,2.64
2023-04-03T22:01:22.251Z,2.76
2023-04-03T22:06:27.170Z,2.61
2023-04-03T22:11:30.367Z,2.72
2023-04-03T22:16:33.140Z,2.59
2023-04-03T22:21:37.235Z,2.53
2023-04-03T22:26:40.693Z,2.57
2023-04-03T22:31:43.525Z,2.42
2023-04-03T22:36:47.601Z,2.39
2023-04-03T22:41:50.397Z,2.39
2023-04-03T22:46:53.581Z,2.21
2023-04-03T22:51:57.670Z,2.25
2023-04-03T22:57:00.428Z,2.18
2023-04-03T23:02:03.202Z,2.08
2023-04-03T23:07:07.278Z,2.08
2023-04-03T23:12:10.038Z,1.99
2023-04-03T23:17:13.094Z,1.86
2023-04-03T23:22:17.503Z,1.82
2023-04-03T23:27:20.387Z,1.83
2023-04-03T23:32:23.153Z,1.83
2023-04-03T23:37:27.302Z,1.56
2023-04-03T23:42:30.041Z,1.72
2023-04-03T23:47:32.823Z,1.52
2023-04-03T23:52:36.921Z,1.62
2023-04-03T23:57:39.666Z,1.24
